Terminal Aerodrome Forecast
Issued by NWS Upton, NY

Home | Current Version | Previous Version | Text Only | Print | Product List | Glossary On
Versions: 1 2 3 4 5 6 7 8 9 10 11 12 13 14 15 16 17 18 19 20 21 22 23 24 25 26 27 28 29
000
FTUS41 KOKX 281959 AAB
TAFISP
TAF AMD
KISP 281959Z 2820/2918 17012KT P6SM SCT250
     FM282300 18006KT P6SM SCT250
     FM290900 23004KT P6SM SCT100 BKN250
     FM291500 28008KT P6SM SCT050 SCT100 BKN250=

USA.gov is the U.S. government's official web portal to all federal, state and local government web resources and services.